sensor_id;sensor_type;location;lat;lon;timestamp;P1;durP1;ratioP1;P2;durP2;ratioP2
49610;SDS011;35515;48.766;9.176;2024-03-08T00:01:14;30.80;;;17.90;;
49610;SDS011;35515;48.766;9.176;2024-03-08T00:03:41;30.67;;;17.52;;
49610;SDS011;35515;48.766;9.176;2024-03-08T00:06:08;29.35;;;17.48;;
49610;SDS011;35515;48.766;9.176;2024-03-08T00:08:35;26.92;;;16.55;;
49610;SDS011;35515;48.766;9.176;2024-03-08T00:11:01;27.98;;;17.70;;
49610;SDS011;35515;48.766;9.176;2024-03-08T00:13:28;28.10;;;16.52;;
49610;SDS011;35515;48.766;9.176;2024-03-08T00:15:56;31.42;;;18.15;;
49610;SDS011;35515;48.766;9.176;2024-03-08T00:18:23;28.23;;;17.67;;
49610;SDS011;35515;48.766;9.176;2024-03-08T00:20:49;27.23;;;16.75;;
49610;SDS011;35515;48.766;9.176;2024-03-08T00:23:16;30.33;;;18.10;;
49610;SDS011;35515;48.766;9.176;2024-03-08T00:25:43;27.55;;;16.70;;
49610;SDS011;35515;48.766;9.176;2024-03-08T00:28:09;27.67;;;15.48;;
49610;SDS011;35515;48.766;9.176;2024-03-08T00:30:38;28.17;;;16.55;;
49610;SDS011;35515;48.766;9.176;2024-03-08T00:33:06;27.45;;;16.02;;
49610;SDS011;35515;48.766;9.176;2024-03-08T00:35:33;26.08;;;17.45;;
49610;SDS011;35515;48.766;9.176;2024-03-08T00:37:59;32.28;;;18.60;;
49610;SDS011;35515;48.766;9.176;2024-03-08T00:40:26;29.02;;;17.45;;
49610;SDS011;35515;48.766;9.176;2024-03-08T00:42:53;29.30;;;17.50;;
49610;SDS011;35515;48.766;9.176;2024-03-08T00:45:20;30.73;;;18.17;;
49610;SDS011;35515;48.766;9.176;2024-03-08T00:47:47;29.17;;;15.57;;
49610;SDS011;35515;48.766;9.176;2024-03-08T00:50:15;27.05;;;16.40;;
49610;SDS011;35515;48.766;9.176;2024-03-08T00:52:43;29.65;;;17.20;;
49610;SDS011;35515;48.766;9.176;2024-03-08T00:55:09;29.15;;;16.25;;
49610;SDS011;35515;48.766;9.176;2024-03-08T00:57:36;26.88;;;16.83;;
49610;SDS011;35515;48.766;9.176;2024-03-08T01:00:04;30.10;;;17.83;;
49610;SDS011;35515;48.766;9.176;2024-03-08T01:02:32;28.70;;;17.42;;
49610;SDS011;35515;48.766;9.176;2024-03-08T01:05:00;31.48;;;17.63;;
49610;SDS011;35515;48.766;9.176;2024-03-08T01:07:28;30.10;;;16.40;;
49610;SDS011;35515;48.766;9.176;2024-03-08T01:09:55;25.60;;;16.00;;
49610;SDS011;35515;48.766;9.176;2024-03-08T01:12:22;28.95;;;17.75;;
49610;SDS011;35515;48.766;9.176;2024-03-08T01:14:49;27.85;;;16.48;;
49610;SDS011;35515;48.766;9.176;2024-03-08T01:17:16;29.70;;;16.42;;
49610;SDS011;35515;48.766;9.176;2024-03-08T01:19:42;29.33;;;17.83;;
49610;SDS011;35515;48.766;9.176;2024-03-08T01:22:10;28.15;;;16.60;;
49610;SDS011;35515;48.766;9.176;2024-03-08T01:24:38;30.92;;;17.63;;
49610;SDS011;35515;48.766;9.176;2024-03-08T01:27:04;25.60;;;15.88;;
49610;SDS011;35515;48.766;9.176;2024-03-08T01:29:33;29.13;;;16.75;;
49610;SDS011;35515;48.766;9.176;2024-03-08T01:31:59;30.40;;;18.27;;
49610;SDS011;35515;48.766;9.176;2024-03-08T01:34:26;28.63;;;16.20;;
49610;SDS011;35515;48.766;9.176;2024-03-08T01:36:53;31.95;;;17.92;;
49610;SDS011;35515;48.766;9.176;2024-03-08T01:39:21;27.33;;;17.13;;
49610;SDS011;35515;48.766;9.176;2024-03-08T01:41:49;30.95;;;17.20;;
49610;SDS011;35515;48.766;9.176;2024-03-08T01:44:15;38.47;;;18.73;;
49610;SDS011;35515;48.766;9.176;2024-03-08T01:46:43;28.08;;;17.65;;
49610;SDS011;35515;48.766;9.176;2024-03-08T01:49:10;30.67;;;18.02;;
49610;SDS011;35515;48.766;9.176;2024-03-08T01:51:38;29.75;;;17.33;;
49610;SDS011;35515;48.766;9.176;2024-03-08T01:54:06;29.80;;;17.40;;
49610;SDS011;35515;48.766;9.176;2024-03-08T01:56:35;32.10;;;18.15;;
49610;SDS011;35515;48.766;9.176;2024-03-08T01:59:05;29.02;;;17.42;;
49610;SDS011;35515;48.766;9.176;2024-03-08T02:01:32;31.92;;;18.00;;
49610;SDS011;35515;48.766;9.176;2024-03-08T02:03:59;29.95;;;18.45;;
49610;SDS011;35515;48.766;9.176;2024-03-08T02:06:26;28.40;;;16.73;;
49610;SDS011;35515;48.766;9.176;2024-03-08T02:08:52;26.98;;;16.55;;
49610;SDS011;35515;48.766;9.176;2024-03-08T02:11:19;24.92;;;15.30;;
49610;SDS011;35515;48.766;9.176;2024-03-08T02:13:46;28.75;;;16.65;;
49610;SDS011;35515;48.766;9.176;2024-03-08T02:16:19;26.45;;;16.00;;
49610;SDS011;35515;48.766;9.176;2024-03-08T02:18:47;27.80;;;16.63;;
49610;SDS011;35515;48.766;9.176;2024-03-08T02:21:16;32.15;;;18.20;;
49610;SDS011;35515;48.766;9.176;2024-03-08T02:23:43;28.95;;;16.80;;
49610;SDS011;35515;48.766;9.176;2024-03-08T02:26:10;27.65;;;15.98;;
49610;SDS011;35515;48.766;9.176;2024-03-08T02:28:36;29.67;;;16.52;;
49610;SDS011;35515;48.766;9.176;2024-03-08T02:31:03;29.45;;;16.75;;
49610;SDS011;35515;48.766;9.176;2024-03-08T02:33:33;29.58;;;16.95;;
49610;SDS011;35515;48.766;9.176;2024-03-08T02:35:59;28.23;;;17.33;;
49610;SDS011;35515;48.766;9.176;2024-03-08T02:38:27;25.23;;;15.07;;
49610;SDS011;35515;48.766;9.176;2024-03-08T02:40:54;27.83;;;16.15;;
49610;SDS011;35515;48.766;9.176;2024-03-08T02:43:21;31.25;;;16.60;;
49610;SDS011;35515;48.766;9.176;2024-03-08T02:45:47;26.58;;;15.65;;
49610;SDS011;35515;48.766;9.176;2024-03-08T02:48:15;27.80;;;16.27;;
49610;SDS011;35515;48.766;9.176;2024-03-08T02:50:42;26.00;;;15.55;;
49610;SDS011;35515;48.766;9.176;2024-03-08T02:53:09;25.73;;;14.98;;
49610;SDS011;35515;48.766;9.176;2024-03-08T02:55:38;25.25;;;15.68;;
49610;SDS011;35515;48.766;9.176;2024-03-08T02:58:05;24.50;;;14.48;;
49610;SDS011;35515;48.766;9.176;2024-03-08T03:00:35;23.95;;;15.00;;
49610;SDS011;35515;48.766;9.176;2024-03-08T03:03:01;24.92;;;15.23;;
49610;SDS011;35515;48.766;9.176;2024-03-08T03:05:29;26.83;;;15.55;;
49610;SDS011;35515;48.766;9.176;2024-03-08T03:07:56;23.50;;;14.38;;
49610;SDS011;35515;48.766;9.176;2024-03-08T03:10:23;22.48;;;13.88;;
49610;SDS011;35515;48.766;9.176;2024-03-08T03:12:51;23.95;;;14.57;;
49610;SDS011;35515;48.766;9.176;2024-03-08T03:15:18;24.73;;;14.75;;
49610;SDS011;35515;48.766;9.176;2024-03-08T03:17:45;23.67;;;15.18;;
49610;SDS011;35515;48.766;9.176;2024-03-08T03:20:12;24.67;;;14.73;;
49610;SDS011;35515;48.766;9.176;2024-03-08T03:22:39;24.10;;;15.15;;
49610;SDS011;35515;48.766;9.176;2024-03-08T03:25:07;23.45;;;14.20;;
49610;SDS011;35515;48.766;9.176;2024-03-08T03:27:34;22.42;;;13.88;;
49610;SDS011;35515;48.766;9.176;2024-03-08T03:30:03;25.70;;;15.73;;
49610;SDS011;35515;48.766;9.176;2024-03-08T03:32:46;25.90;;;15.02;;
49610;SDS011;35515;48.766;9.176;2024-03-08T03:35:12;22.17;;;14.63;;
49610;SDS011;35515;48.766;9.176;2024-03-08T03:37:39;25.67;;;14.85;;
49610;SDS011;35515;48.766;9.176;2024-03-08T03:40:08;27.45;;;14.63;;
49610;SDS011;35515;48.766;9.176;2024-03-08T03:42:35;24.83;;;14.75;;
49610;SDS011;35515;48.766;9.176;2024-03-08T03:45:05;27.13;;;15.30;;
49610;SDS011;35515;48.766;9.176;2024-03-08T03:47:32;23.48;;;13.75;;
49610;SDS011;35515;48.766;9.176;2024-03-08T03:49:58;29.05;;;14.15;;
49610;SDS011;35515;48.766;9.176;2024-03-08T03:52:27;24.48;;;14.23;;
49610;SDS011;35515;48.766;9.176;2024-03-08T03:54:53;25.10;;;15.25;;
49610;SDS011;35515;48.766;9.176;2024-03-08T03:57:20;23.95;;;14.32;;
49610;SDS011;35515;48.766;9.176;2024-03-08T03:59:48;28.25;;;16.20;;
49610;SDS011;35515;48.766;9.176;2024-03-08T04:02:16;23.30;;;14.35;;
49610;SDS011;35515;48.766;9.176;2024-03-08T04:04:45;24.38;;;14.77;;
49610;SDS011;35515;48.766;9.176;2024-03-08T04:07:12;23.25;;;14.27;;
49610;SDS011;35515;48.766;9.176;2024-03-08T04:09:38;22.92;;;14.35;;
49610;SDS011;35515;48.766;9.176;2024-03-08T04:12:05;24.75;;;16.10;;
49610;SDS011;35515;48.766;9.176;2024-03-08T04:14:32;29.15;;;15.88;;
49610;SDS011;35515;48.766;9.176;2024-03-08T04:16:59;24.00;;;15.43;;
49610;SDS011;35515;48.766;9.176;2024-03-08T04:19:27;26.30;;;15.10;;
49610;SDS011;35515;48.766;9.176;2024-03-08T04:21:54;27.65;;;14.93;;
49610;SDS011;35515;48.766;9.176;2024-03-08T04:24:20;24.08;;;14.40;;
49610;SDS011;35515;48.766;9.176;2024-03-08T04:26:47;26.08;;;15.30;;
49610;SDS011;35515;48.766;9.176;2024-03-08T04:29:14;27.02;;;16.73;;
49610;SDS011;35515;48.766;9.176;2024-03-08T04:31:42;23.45;;;14.93;;
49610;SDS011;35515;48.766;9.176;2024-03-08T04:34:07;26.40;;;15.35;;
49610;SDS011;35515;48.766;9.176;2024-03-08T04:36:35;27.35;;;14.63;;
49610;SDS011;35515;48.766;9.176;2024-03-08T04:39:03;28.08;;;15.95;;
49610;SDS011;35515;48.766;9.176;2024-03-08T04:41:29;24.20;;;15.52;;
49610;SDS011;35515;48.766;9.176;2024-03-08T04:43:56;26.13;;;15.77;;
49610;SDS011;35515;48.766;9.176;2024-03-08T04:46:23;26.05;;;15.57;;
49610;SDS011;35515;48.766;9.176;2024-03-08T04:48:50;23.83;;;14.85;;
49610;SDS011;35515;48.766;9.176;2024-03-08T04:51:16;27.77;;;16.92;;
49610;SDS011;35515;48.766;9.176;2024-03-08T04:53:45;28.17;;;14.85;;
49610;SDS011;35515;48.766;9.176;2024-03-08T04:56:12;24.95;;;16.15;;
49610;SDS011;35515;48.766;9.176;2024-03-08T04:58:39;27.00;;;17.27;;
49610;SDS011;35515;48.766;9.176;2024-03-08T05:01:05;27.15;;;15.45;;
49610;SDS011;35515;48.766;9.176;2024-03-08T05:03:35;26.40;;;15.65;;
49610;SDS011;35515;48.766;9.176;2024-03-08T05:06:02;27.17;;;15.50;;
49610;SDS011;35515;48.766;9.176;2024-03-08T05:08:28;26.33;;;16.45;;
49610;SDS011;35515;48.766;9.176;2024-03-08T05:10:56;27.88;;;16.58;;
49610;SDS011;35515;48.766;9.176;2024-03-08T05:13:23;27.30;;;17.10;;
49610;SDS011;35515;48.766;9.176;2024-03-08T05:15:49;30.58;;;16.98;;
49610;SDS011;35515;48.766;9.176;2024-03-08T05:18:16;25.92;;;16.42;;
49610;SDS011;35515;48.766;9.176;2024-03-08T05:20:42;28.70;;;18.05;;
49610;SDS011;35515;48.766;9.176;2024-03-08T05:23:09;28.38;;;16.73;;
49610;SDS011;35515;48.766;9.176;2024-03-08T05:25:35;26.15;;;16.42;;
49610;SDS011;35515;48.766;9.176;2024-03-08T05:28:04;28.08;;;15.95;;
49610;SDS011;35515;48.766;9.176;2024-03-08T05:30:31;26.58;;;16.92;;
49610;SDS011;35515;48.766;9.176;2024-03-08T05:32:57;28.63;;;16.63;;
49610;SDS011;35515;48.766;9.176;2024-03-08T05:35:24;26.20;;;16.08;;
49610;SDS011;35515;48.766;9.176;2024-03-08T05:37:51;26.40;;;15.63;;
49610;SDS011;35515;48.766;9.176;2024-03-08T05:40:17;29.95;;;17.45;;
49610;SDS011;35515;48.766;9.176;2024-03-08T05:42:44;27.30;;;16.15;;
49610;SDS011;35515;48.766;9.176;2024-03-08T05:45:12;31.35;;;17.20;;
49610;SDS011;35515;48.766;9.176;2024-03-08T05:47:40;29.42;;;17.80;;
49610;SDS011;35515;48.766;9.176;2024-03-08T05:50:07;28.08;;;17.20;;
49610;SDS011;35515;48.766;9.176;2024-03-08T05:52:36;30.02;;;17.15;;
49610;SDS011;35515;48.766;9.176;2024-03-08T05:55:03;30.08;;;17.95;;
49610;SDS011;35515;48.766;9.176;2024-03-08T05:57:32;30.15;;;16.92;;
49610;SDS011;35515;48.766;9.176;2024-03-08T05:59:59;29.63;;;17.38;;
49610;SDS011;35515;48.766;9.176;2024-03-08T06:02:26;31.85;;;18.27;;
49610;SDS011;35515;48.766;9.176;2024-03-08T06:04:53;29.25;;;17.35;;
49610;SDS011;35515;48.766;9.176;2024-03-08T06:07:20;29.08;;;17.88;;
49610;SDS011;35515;48.766;9.176;2024-03-08T06:09:46;29.10;;;18.00;;
49610;SDS011;35515;48.766;9.176;2024-03-08T06:12:13;32.10;;;17.95;;
49610;SDS011;35515;48.766;9.176;2024-03-08T06:14:43;29.73;;;17.67;;
49610;SDS011;35515;48.766;9.176;2024-03-08T06:17:10;29.75;;;18.13;;
49610;SDS011;35515;48.766;9.176;2024-03-08T06:19:38;31.17;;;18.92;;
49610;SDS011;35515;48.766;9.176;2024-03-08T06:22:04;30.38;;;18.20;;
49610;SDS011;35515;48.766;9.176;2024-03-08T06:24:31;28.70;;;17.08;;
49610;SDS011;35515;48.766;9.176;2024-03-08T06:26:59;32.65;;;18.88;;
49610;SDS011;35515;48.766;9.176;2024-03-08T06:29:25;32.20;;;19.45;;
49610;SDS011;35515;48.766;9.176;2024-03-08T06:31:52;30.15;;;18.08;;
49610;SDS011;35515;48.766;9.176;2024-03-08T06:34:18;32.63;;;17.95;;
49610;SDS011;35515;48.766;9.176;2024-03-08T06:36:46;30.45;;;18.27;;
49610;SDS011;35515;48.766;9.176;2024-03-08T06:39:13;30.48;;;17.05;;
49610;SDS011;35515;48.766;9.176;2024-03-08T06:41:39;32.78;;;17.60;;
49610;SDS011;35515;48.766;9.176;2024-03-08T06:44:06;29.65;;;17.85;;
49610;SDS011;35515;48.766;9.176;2024-03-08T06:46:33;29.63;;;18.10;;
49610;SDS011;35515;48.766;9.176;2024-03-08T06:49:00;33.20;;;18.90;;
49610;SDS011;35515;48.766;9.176;2024-03-08T06:51:28;35.30;;;17.58;;
49610;SDS011;35515;48.766;9.176;2024-03-08T06:53:57;31.70;;;18.30;;
49610;SDS011;35515;48.766;9.176;2024-03-08T06:56:25;32.10;;;17.73;;
49610;SDS011;35515;48.766;9.176;2024-03-08T06:58:52;28.60;;;17.70;;
49610;SDS011;35515;48.766;9.176;2024-03-08T07:01:18;30.05;;;18.02;;
49610;SDS011;35515;48.766;9.176;2024-03-08T07:03:46;31.23;;;17.73;;
49610;SDS011;35515;48.766;9.176;2024-03-08T07:06:12;30.48;;;18.13;;
49610;SDS011;35515;48.766;9.176;2024-03-08T07:08:39;30.17;;;17.73;;
49610;SDS011;35515;48.766;9.176;2024-03-08T07:11:07;33.28;;;18.55;;
49610;SDS011;35515;48.766;9.176;2024-03-08T07:13:33;30.67;;;18.42;;
49610;SDS011;35515;48.766;9.176;2024-03-08T07:16:00;30.75;;;17.23;;
49610;SDS011;35515;48.766;9.176;2024-03-08T07:18:27;32.65;;;18.77;;
49610;SDS011;35515;48.766;9.176;2024-03-08T07:20:54;30.95;;;18.73;;
49610;SDS011;35515;48.766;9.176;2024-03-08T07:23:21;32.05;;;18.15;;
49610;SDS011;35515;48.766;9.176;2024-03-08T07:26:01;26.63;;;16.88;;
49610;SDS011;35515;48.766;9.176;2024-03-08T07:28:29;30.38;;;18.23;;
49610;SDS011;35515;48.766;9.176;2024-03-08T07:30:56;28.52;;;17.52;;
49610;SDS011;35515;48.766;9.176;2024-03-08T07:33:37;30.27;;;17.98;;
49610;SDS011;35515;48.766;9.176;2024-03-08T07:36:04;31.08;;;18.15;;
49610;SDS011;35515;48.766;9.176;2024-03-08T07:38:31;30.55;;;17.33;;
49610;SDS011;35515;48.766;9.176;2024-03-08T07:40:57;29.38;;;17.20;;
49610;SDS011;35515;48.766;9.176;2024-03-08T07:43:24;32.38;;;17.27;;
49610;SDS011;35515;48.766;9.176;2024-03-08T07:45:51;27.35;;;16.63;;
49610;SDS011;35515;48.766;9.176;2024-03-08T07:48:20;28.48;;;16.05;;
49610;SDS011;35515;48.766;9.176;2024-03-08T07:50:46;28.08;;;16.27;;
49610;SDS011;35515;48.766;9.176;2024-03-08T07:53:14;26.02;;;15.85;;
49610;SDS011;35515;48.766;9.176;2024-03-08T07:55:41;25.45;;;15.70;;
49610;SDS011;35515;48.766;9.176;2024-03-08T07:58:09;28.20;;;16.88;;
49610;SDS011;35515;48.766;9.176;2024-03-08T08:00:36;27.27;;;16.50;;
49610;SDS011;35515;48.766;9.176;2024-03-08T08:03:04;34.28;;;17.58;;
49610;SDS011;35515;48.766;9.176;2024-03-08T08:05:33;30.77;;;17.02;;
49610;SDS011;35515;48.766;9.176;2024-03-08T08:08:00;26.95;;;16.33;;
49610;SDS011;35515;48.766;9.176;2024-03-08T08:10:28;25.20;;;16.85;;
49610;SDS011;35515;48.766;9.176;2024-03-08T08:12:54;30.23;;;16.65;;
49610;SDS011;35515;48.766;9.176;2024-03-08T08:15:22;26.42;;;15.32;;
49610;SDS011;35515;48.766;9.176;2024-03-08T08:17:48;25.15;;;16.15;;
49610;SDS011;35515;48.766;9.176;2024-03-08T08:20:17;26.67;;;16.17;;
49610;SDS011;35515;48.766;9.176;2024-03-08T08:22:44;27.45;;;17.25;;
49610;SDS011;35515;48.766;9.176;2024-03-08T08:25:12;25.25;;;14.90;;
49610;SDS011;35515;48.766;9.176;2024-03-08T08:27:40;29.02;;;16.73;;
49610;SDS011;35515;48.766;9.176;2024-03-08T08:30:07;27.30;;;16.13;;
49610;SDS011;35515;48.766;9.176;2024-03-08T08:32:36;27.38;;;16.95;;
49610;SDS011;35515;48.766;9.176;2024-03-08T08:35:04;29.42;;;17.40;;
49610;SDS011;35515;48.766;9.176;2024-03-08T08:37:34;26.55;;;16.60;;
49610;SDS011;35515;48.766;9.176;2024-03-08T08:40:02;26.75;;;16.05;;
49610;SDS011;35515;48.766;9.176;2024-03-08T08:42:34;28.05;;;17.33;;
49610;SDS011;35515;48.766;9.176;2024-03-08T08:45:00;29.45;;;17.23;;
49610;SDS011;35515;48.766;9.176;2024-03-08T08:47:29;25.30;;;17.23;;
49610;SDS011;35515;48.766;9.176;2024-03-08T08:49:55;26.20;;;15.65;;
49610;SDS011;35515;48.766;9.176;2024-03-08T08:52:22;29.13;;;16.40;;
49610;SDS011;35515;48.766;9.176;2024-03-08T08:54:50;25.13;;;14.68;;
49610;SDS011;35515;48.766;9.176;2024-03-08T08:57:17;28.30;;;17.60;;
49610;SDS011;35515;48.766;9.176;2024-03-08T08:59:44;26.67;;;16.10;;
49610;SDS011;35515;48.766;9.176;2024-03-08T09:02:10;27.23;;;16.02;;
49610;SDS011;35515;48.766;9.176;2024-03-08T09:04:37;23.23;;;16.08;;
49610;SDS011;35515;48.766;9.176;2024-03-08T09:07:04;28.02;;;16.50;;
49610;SDS011;35515;48.766;9.176;2024-03-08T09:09:31;24.48;;;15.43;;
49610;SDS011;35515;48.766;9.176;2024-03-08T09:11:59;29.65;;;17.33;;
49610;SDS011;35515;48.766;9.176;2024-03-08T09:14:26;26.27;;;15.10;;
49610;SDS011;35515;48.766;9.176;2024-03-08T09:16:52;27.55;;;17.05;;
49610;SDS011;35515;48.766;9.176;2024-03-08T09:19:19;26.75;;;15.98;;
49610;SDS011;35515;48.766;9.176;2024-03-08T09:21:48;29.08;;;16.58;;
49610;SDS011;35515;48.766;9.176;2024-03-08T09:24:14;27.63;;;17.35;;
49610;SDS011;35515;48.766;9.176;2024-03-08T09:26:41;28.67;;;16.48;;
49610;SDS011;35515;48.766;9.176;2024-03-08T09:29:09;29.35;;;15.93;;
49610;SDS011;35515;48.766;9.176;2024-03-08T09:31:36;26.75;;;16.10;;
49610;SDS011;35515;48.766;9.176;2024-03-08T09:34:04;25.45;;;16.77;;
49610;SDS011;35515;48.766;9.176;2024-03-08T09:36:33;29.05;;;17.42;;
49610;SDS011;35515;48.766;9.176;2024-03-08T09:39:00;25.88;;;16.58;;
49610;SDS011;35515;48.766;9.176;2024-03-08T09:41:26;26.10;;;14.55;;
49610;SDS011;35515;48.766;9.176;2024-03-08T09:43:53;26.15;;;16.55;;
49610;SDS011;35515;48.766;9.176;2024-03-08T09:46:22;29.55;;;16.60;;
49610;SDS011;35515;48.766;9.176;2024-03-08T09:48:49;27.63;;;14.93;;
49610;SDS011;35515;48.766;9.176;2024-03-08T09:51:16;27.77;;;16.17;;
49610;SDS011;35515;48.766;9.176;2024-03-08T09:53:42;23.88;;;15.73;;
49610;SDS011;35515;48.766;9.176;2024-03-08T09:56:09;24.67;;;15.70;;
49610;SDS011;35515;48.766;9.176;2024-03-08T09:58:37;24.20;;;15.10;;
49610;SDS011;35515;48.766;9.176;2024-03-08T10:03:52;28.75;;;16.90;;
49610;SDS011;35515;48.766;9.176;2024-03-08T10:06:22;32.75;;;16.73;;
49610;SDS011;35515;48.766;9.176;2024-03-08T10:08:48;22.73;;;14.95;;
49610;SDS011;35515;48.766;9.176;2024-03-08T10:11:16;24.52;;;14.88;;
49610;SDS011;35515;48.766;9.176;2024-03-08T10:13:43;26.35;;;16.67;;
49610;SDS011;35515;48.766;9.176;2024-03-08T10:16:11;25.02;;;15.32;;
49610;SDS011;35515;48.766;9.176;2024-03-08T10:18:39;24.88;;;15.38;;
49610;SDS011;35515;48.766;9.176;2024-03-08T10:21:06;24.90;;;14.75;;
49610;SDS011;35515;48.766;9.176;2024-03-08T10:23:35;25.05;;;15.75;;
49610;SDS011;35515;48.766;9.176;2024-03-08T10:26:11;31.60;;;18.00;;
49610;SDS011;35515;48.766;9.176;2024-03-08T10:28:40;27.05;;;16.50;;
49610;SDS011;35515;48.766;9.176;2024-03-08T10:31:08;31.05;;;18.23;;
49610;SDS011;35515;48.766;9.176;2024-03-08T10:33:34;29.50;;;18.50;;
49610;SDS011;35515;48.766;9.176;2024-03-08T10:36:04;24.27;;;14.68;;
49610;SDS011;35515;48.766;9.176;2024-03-08T10:38:33;25.27;;;15.43;;
49610;SDS011;35515;48.766;9.176;2024-03-08T10:41:02;26.88;;;15.68;;
49610;SDS011;35515;48.766;9.176;2024-03-08T10:43:31;24.67;;;15.98;;
49610;SDS011;35515;48.766;9.176;2024-03-08T10:46:08;23.15;;;16.10;;
49610;SDS011;35515;48.766;9.176;2024-03-08T10:48:49;23.55;;;13.98;;
49610;SDS011;35515;48.766;9.176;2024-03-08T10:51:17;24.63;;;14.82;;
49610;SDS011;35515;48.766;9.176;2024-03-08T10:53:45;23.80;;;15.60;;
49610;SDS011;35515;48.766;9.176;2024-03-08T10:56:13;24.20;;;14.85;;
49610;SDS011;35515;48.766;9.176;2024-03-08T10:58:40;23.67;;;14.73;;
49610;SDS011;35515;48.766;9.176;2024-03-08T11:01:09;21.38;;;13.32;;
49610;SDS011;35515;48.766;9.176;2024-03-08T11:03:46;21.10;;;13.77;;
49610;SDS011;35515;48.766;9.176;2024-03-08T11:06:21;26.55;;;15.77;;
49610;SDS011;35515;48.766;9.176;2024-03-08T11:08:55;25.25;;;16.02;;
49610;SDS011;35515;48.766;9.176;2024-03-08T11:11:24;22.92;;;14.55;;
49610;SDS011;35515;48.766;9.176;2024-03-08T11:13:56;22.42;;;13.68;;
49610;SDS011;35515;48.766;9.176;2024-03-08T11:16:39;24.83;;;14.68;;
49610;SDS011;35515;48.766;9.176;2024-03-08T11:19:24;25.38;;;15.70;;
49610;SDS011;35515;48.766;9.176;2024-03-08T11:22:01;24.20;;;15.07;;
49610;SDS011;35515;48.766;9.176;2024-03-08T11:24:28;26.27;;;15.50;;
49610;SDS011;35515;48.766;9.176;2024-03-08T11:27:03;24.15;;;15.30;;
49610;SDS011;35515;48.766;9.176;2024-03-08T11:29:33;26.70;;;14.70;;
49610;SDS011;35515;48.766;9.176;2024-03-08T11:34:31;26.88;;;14.80;;
49610;SDS011;35515;48.766;9.176;2024-03-08T11:37:00;24.95;;;16.40;;
49610;SDS011;35515;48.766;9.176;2024-03-08T11:39:29;24.75;;;14.15;;
49610;SDS011;35515;48.766;9.176;2024-03-08T11:41:56;27.08;;;16.35;;
49610;SDS011;35515;48.766;9.176;2024-03-08T11:44:26;23.05;;;14.73;;
49610;SDS011;35515;48.766;9.176;2024-03-08T11:46:53;24.02;;;15.10;;
49610;SDS011;35515;48.766;9.176;2024-03-08T11:49:20;24.75;;;15.02;;
49610;SDS011;35515;48.766;9.176;2024-03-08T11:51:47;25.83;;;15.77;;
49610;SDS011;35515;48.766;9.176;2024-03-08T11:54:19;22.70;;;14.82;;
49610;SDS011;35515;48.766;9.176;2024-03-08T11:56:46;25.42;;;15.15;;
49610;SDS011;35515;48.766;9.176;2024-03-08T11:59:13;24.40;;;15.27;;
49610;SDS011;35515;48.766;9.176;2024-03-08T12:01:40;27.27;;;16.23;;
49610;SDS011;35515;48.766;9.176;2024-03-08T12:04:06;25.13;;;15.88;;
49610;SDS011;35515;48.766;9.176;2024-03-08T12:06:38;24.83;;;16.13;;
49610;SDS011;35515;48.766;9.176;2024-03-08T12:09:07;24.45;;;15.55;;
49610;SDS011;35515;48.766;9.176;2024-03-08T12:11:36;24.80;;;14.85;;
49610;SDS011;35515;48.766;9.176;2024-03-08T12:14:03;26.67;;;16.42;;
49610;SDS011;35515;48.766;9.176;2024-03-08T12:16:31;23.48;;;14.63;;
49610;SDS011;35515;48.766;9.176;2024-03-08T12:18:58;23.98;;;15.38;;
49610;SDS011;35515;48.766;9.176;2024-03-08T12:21:31;28.88;;;17.10;;
49610;SDS011;35515;48.766;9.176;2024-03-08T12:24:04;25.10;;;16.55;;
49610;SDS011;35515;48.766;9.176;2024-03-08T12:26:34;24.05;;;14.13;;
49610;SDS011;35515;48.766;9.176;2024-03-08T12:29:15;23.95;;;14.75;;
49610;SDS011;35515;48.766;9.176;2024-03-08T12:31:47;29.45;;;17.17;;
49610;SDS011;35515;48.766;9.176;2024-03-08T12:34:16;24.90;;;16.10;;
49610;SDS011;35515;48.766;9.176;2024-03-08T12:36:46;24.90;;;15.25;;
49610;SDS011;35515;48.766;9.176;2024-03-08T12:39:15;25.90;;;14.90;;
49610;SDS011;35515;48.766;9.176;2024-03-08T12:41:43;25.48;;;15.95;;
49610;SDS011;35515;48.766;9.176;2024-03-08T12:44:09;27.35;;;16.17;;
49610;SDS011;35515;48.766;9.176;2024-03-08T12:46:38;26.33;;;16.08;;
49610;SDS011;35515;48.766;9.176;2024-03-08T12:49:07;26.52;;;16.60;;
49610;SDS011;35515;48.766;9.176;2024-03-08T12:51:34;24.30;;;15.40;;
49610;SDS011;35515;48.766;9.176;2024-03-08T12:54:01;26.90;;;16.67;;
49610;SDS011;35515;48.766;9.176;2024-03-08T12:56:31;29.08;;;16.05;;
49610;SDS011;35515;48.766;9.176;2024-03-08T12:58:59;26.52;;;16.25;;
49610;SDS011;35515;48.766;9.176;2024-03-08T13:01:26;26.52;;;15.20;;
49610;SDS011;35515;48.766;9.176;2024-03-08T13:03:54;25.73;;;16.20;;
49610;SDS011;35515;48.766;9.176;2024-03-08T13:06:21;26.90;;;16.48;;
49610;SDS011;35515;48.766;9.176;2024-03-08T13:08:49;23.80;;;15.75;;
49610;SDS011;35515;48.766;9.176;2024-03-08T13:11:17;28.10;;;15.40;;
49610;SDS011;35515;48.766;9.176;2024-03-08T13:13:44;25.33;;;15.85;;
49610;SDS011;35515;48.766;9.176;2024-03-08T13:16:11;26.75;;;16.40;;
49610;SDS011;35515;48.766;9.176;2024-03-08T13:18:39;27.55;;;16.48;;
49610;SDS011;35515;48.766;9.176;2024-03-08T13:21:08;24.35;;;15.38;;
49610;SDS011;35515;48.766;9.176;2024-03-08T13:23:36;26.08;;;16.35;;
49610;SDS011;35515;48.766;9.176;2024-03-08T13:26:05;25.83;;;15.55;;
49610;SDS011;35515;48.766;9.176;2024-03-08T13:28:31;24.98;;;15.73;;
49610;SDS011;35515;48.766;9.176;2024-03-08T13:31:02;27.05;;;15.35;;
49610;SDS011;35515;48.766;9.176;2024-03-08T13:33:32;26.60;;;15.30;;
49610;SDS011;35515;48.766;9.176;2024-03-08T13:36:01;27.63;;;16.23;;
49610;SDS011;35515;48.766;9.176;2024-03-08T13:38:29;27.75;;;16.95;;
49610;SDS011;35515;48.766;9.176;2024-03-08T13:40:57;30.75;;;16.83;;
49610;SDS011;35515;48.766;9.176;2024-03-08T13:43:24;26.35;;;16.55;;
49610;SDS011;35515;48.766;9.176;2024-03-08T13:45:53;26.65;;;16.48;;
49610;SDS011;35515;48.766;9.176;2024-03-08T13:48:20;28.63;;;18.40;;
49610;SDS011;35515;48.766;9.176;2024-03-08T13:50:47;25.83;;;15.68;;
49610;SDS011;35515;48.766;9.176;2024-03-08T13:53:14;32.35;;;17.88;;
49610;SDS011;35515;48.766;9.176;2024-03-08T13:55:42;28.45;;;17.20;;
49610;SDS011;35515;48.766;9.176;2024-03-08T13:58:09;26.88;;;15.88;;
49610;SDS011;35515;48.766;9.176;2024-03-08T14:00:38;27.48;;;16.45;;
49610;SDS011;35515;48.766;9.176;2024-03-08T14:03:08;24.38;;;16.45;;
49610;SDS011;35515;48.766;9.176;2024-03-08T14:05:35;29.77;;;16.30;;
49610;SDS011;35515;48.766;9.176;2024-03-08T14:08:04;27.98;;;16.45;;
49610;SDS011;35515;48.766;9.176;2024-03-08T14:10:32;23.85;;;15.05;;
49610;SDS011;35515;48.766;9.176;2024-03-08T14:13:00;25.58;;;14.52;;
49610;SDS011;35515;48.766;9.176;2024-03-08T14:15:29;28.35;;;15.88;;
49610;SDS011;35515;48.766;9.176;2024-03-08T14:17:56;24.35;;;14.50;;
49610;SDS011;35515;48.766;9.176;2024-03-08T14:20:23;27.63;;;15.07;;
49610;SDS011;35515;48.766;9.176;2024-03-08T14:22:51;27.35;;;16.85;;
49610;SDS011;35515;48.766;9.176;2024-03-08T14:25:17;25.70;;;15.00;;
49610;SDS011;35515;48.766;9.176;2024-03-08T14:27:44;28.35;;;16.33;;
49610;SDS011;35515;48.766;9.176;2024-03-08T14:30:13;23.45;;;15.07;;